Terminal Aerodrome Forecast
Issued by NWS

Home | Current Version | Previous Version | Text Only | Print | Product List | Glossary On
Versions: 1 2 3 4 5 6 7 8 9 10 11 12 13 14 15 16 17 18 19
000
FTUS42 KTBW 211130
TAFLAL
TAF
KLAL 211130Z 2112/2212 09004KT 6SM BR BKN040 BKN250
     FM211400 11008KT P6SM SCT035 BKN250
     FM212100 14009KT P6SM SCT040 BKN250
     FM220200 13004KT P6SM SCT035 BKN250
     FM220900 13005KT 6SM BR SCT030 BKN120=

USA.gov is the U.S. government's official web portal to all federal, state and local government web resources and services.